createdAt,value
2018-11-05T00:01:08.592Z,13.43
2018-11-05T00:03:35.563Z,16.60
2018-11-05T00:06:02.539Z,12.63
2018-11-05T00:08:29.388Z,15.10
2018-11-05T00:10:56.130Z,15.63
2018-11-05T00:13:22.914Z,12.97
2018-11-05T00:15:49.805Z,10.07
2018-11-05T00:18:16.754Z,14.87
2018-11-05T00:20:43.764Z,11.20
2018-11-05T00:23:11.098Z,14.03
2018-11-05T00:25:38.085Z,14.07
2018-11-05T00:28:04.879Z,13.07
2018-11-05T00:30:32.040Z,12.10
2018-11-05T00:32:59.371Z,14.30
2018-11-05T00:35:26.200Z,12.70
2018-11-05T00:37:53.008Z,12.63
2018-11-05T00:40:19.794Z,14.97
2018-11-05T00:42:47.095Z,13.13
2018-11-05T00:45:14.861Z,13.20
2018-11-05T00:47:41.989Z,12.30
2018-11-05T00:50:09.691Z,12.53
2018-11-05T00:52:36.555Z,13.63
2018-11-05T00:55:03.431Z,12.90
2018-11-05T00:57:30.357Z,12.70
2018-11-05T00:59:57.170Z,12.77
2018-11-05T01:02:23.950Z,11.93
2018-11-05T01:04:50.724Z,10.33
2018-11-05T01:07:17.811Z,11.17
2018-11-05T01:09:44.680Z,12.20
2018-11-05T01:12:11.594Z,13.60
2018-11-05T01:14:38.395Z,13.80
2018-11-05T01:17:05.281Z,12.47
2018-11-05T01:19:32.571Z,11.20
2018-11-05T01:21:59.695Z,11.57
2018-11-05T01:24:26.805Z,12.67
2018-11-05T01:26:53.855Z,13.83
2018-11-05T01:29:20.856Z,13.10
2018-11-05T01:31:47.679Z,10.33
2018-11-05T01:34:15.631Z,12.23
2018-11-05T01:36:42.485Z,14.80
2018-11-05T01:39:10.663Z,14.43
2018-11-05T01:41:37.797Z,11.70
2018-11-05T01:44:04.617Z,14.17
2018-11-05T01:46:31.685Z,12.77
2018-11-05T01:48:58.526Z,11.03
2018-11-05T01:51:25.380Z,12.33
2018-11-05T01:53:52.222Z,12.43
2018-11-05T01:56:19.321Z,15.73
2018-11-05T01:58:46.590Z,14.63
2018-11-05T02:01:13.402Z,13.80
2018-11-05T02:03:40.592Z,11.17
2018-11-05T02:06:07.398Z,11.83
2018-11-05T02:08:34.190Z,13.43
2018-11-05T02:11:01.252Z,13.43
2018-11-05T02:13:28.503Z,10.93
2018-11-05T02:15:55.278Z,13.87
2018-11-05T02:18:22.295Z,12.97
2018-11-05T02:20:49.476Z,13.47
2018-11-05T02:23:16.829Z,13.93
2018-11-05T02:25:43.661Z,13.30
2018-11-05T02:28:10.459Z,10.47
2018-11-05T02:30:37.706Z,14.77
2018-11-05T02:33:04.480Z,12.87
2018-11-05T02:35:31.234Z,13.13
2018-11-05T02:37:58.087Z,12.10
2018-11-05T02:40:24.855Z,14.23
2018-11-05T02:42:52.094Z,12.87
2018-11-05T02:45:20.011Z,12.07
2018-11-05T02:47:46.998Z,16.13
2018-11-05T02:50:14.036Z,13.93
2018-11-05T02:52:41.723Z,12.27
2018-11-05T02:55:08.860Z,13.80
2018-11-05T02:57:35.979Z,14.47
2018-11-05T03:00:02.757Z,14.87
2018-11-05T03:02:29.611Z,14.87
2018-11-05T03:04:56.817Z,14.47
2018-11-05T03:07:23.771Z,11.80
2018-11-05T03:09:50.644Z,12.43
2018-11-05T03:12:17.431Z,11.47
2018-11-05T03:14:44.327Z,13.87
2018-11-05T03:17:11.280Z,16.03
2018-11-05T03:19:38.113Z,14.03
2018-11-05T03:22:04.893Z,13.80
2018-11-05T03:24:31.864Z,12.43
2018-11-05T03:26:58.668Z,11.77
2018-11-05T03:29:25.469Z,12.47
2018-11-05T03:31:52.901Z,11.13
2018-11-05T03:34:19.932Z,10.97
2018-11-05T03:36:46.767Z,11.80
2018-11-05T03:39:14.017Z,13.63
2018-11-05T03:41:40.891Z,11.43
2018-11-05T03:44:08.350Z,13.17
2018-11-05T03:46:35.485Z,11.80
2018-11-05T03:49:02.599Z,11.73
2018-11-05T03:51:29.650Z,12.40
2018-11-05T03:53:56.469Z,10.40
2018-11-05T03:56:23.502Z,17.37
2018-11-05T03:58:50.055Z,13.43
2018-11-05T04:01:17.359Z,11.73
2018-11-05T04:03:44.568Z,10.73
2018-11-05T04:06:11.484Z,14.00
2018-11-05T04:08:38.458Z,10.93
2018-11-05T04:11:05.272Z,13.83
2018-11-05T04:13:32.071Z,13.93
2018-11-05T04:15:58.955Z,11.63
2018-11-05T04:18:25.797Z,14.97
2018-11-05T04:20:52.600Z,12.93
2018-11-05T04:23:19.526Z,12.70
2018-11-05T04:25:46.383Z,10.17
2018-11-05T04:28:13.168Z,13.57
2018-11-05T04:30:39.962Z,10.27
2018-11-05T04:33:06.914Z,13.40
2018-11-05T04:35:33.902Z,13.17
2018-11-05T04:38:00.738Z,11.93
2018-11-05T04:40:27.598Z,10.67
2018-11-05T04:42:54.464Z,12.80
2018-11-05T04:45:21.300Z,12.07
2018-11-05T04:47:48.116Z,11.40
2018-11-05T04:50:14.855Z,11.77
2018-11-05T04:52:42.249Z,13.77
2018-11-05T04:55:09.036Z,14.23
2018-11-05T04:57:36.108Z,12.90
2018-11-05T05:00:13.180Z,12.80
2018-11-05T05:02:41.076Z,13.70
2018-11-05T05:05:08.158Z,18.37
2018-11-05T05:07:35.054Z,15.67
2018-11-05T05:10:01.863Z,13.97
2018-11-05T05:12:28.812Z,12.70
2018-11-05T05:14:55.751Z,13.13
2018-11-05T05:17:22.857Z,14.47
2018-11-05T05:19:49.633Z,14.80
2018-11-05T05:22:16.602Z,14.37
2018-11-05T05:24:43.339Z,12.87
2018-11-05T05:27:10.135Z,13.80
2018-11-05T05:29:37.057Z,11.20
2018-11-05T05:32:03.837Z,12.53
2018-11-05T05:34:30.613Z,14.40
2018-11-05T05:36:57.590Z,14.73
2018-11-05T05:39:24.673Z,12.40
2018-11-05T05:41:51.427Z,12.07
2018-11-05T05:44:18.250Z,12.80
2018-11-05T05:46:45.399Z,14.20
2018-11-05T05:49:12.751Z,11.90
2018-11-05T05:51:39.556Z,12.27
2018-11-05T05:54:06.324Z,14.97
2018-11-05T05:56:33.497Z,13.57
2018-11-05T05:59:00.341Z,14.93
2018-11-05T06:01:27.404Z,13.77
2018-11-05T06:03:54.273Z,13.17
2018-11-05T06:06:21.319Z,12.70
2018-11-05T06:08:47.932Z,14.90
2018-11-05T06:11:14.748Z,13.90
2018-11-05T06:13:41.532Z,13.63
2018-11-05T06:16:08.284Z,12.97
2018-11-05T06:18:35.518Z,13.80
2018-11-05T06:21:02.308Z,13.93
2018-11-05T06:23:29.160Z,12.47
2018-11-05T06:25:56.084Z,13.57
2018-11-05T06:28:23.042Z,16.27
2018-11-05T06:30:49.824Z,13.57
2018-11-05T06:33:18.344Z,12.90
2018-11-05T06:35:45.182Z,13.60
2018-11-05T06:38:12.065Z,13.47
2018-11-05T06:40:39.268Z,14.27
2018-11-05T06:43:06.068Z,14.43
2018-11-05T06:45:33.124Z,10.73
2018-11-05T06:47:59.938Z,13.07
2018-11-05T06:50:27.646Z,12.33
2018-11-05T06:52:54.802Z,14.27
2018-11-05T06:55:21.763Z,12.10
2018-11-05T06:57:48.697Z,12.33
2018-11-05T07:00:20.067Z,12.50
2018-11-05T07:02:46.866Z,12.87
2018-11-05T07:05:14.571Z,11.13
2018-11-05T07:07:41.611Z,13.50
2018-11-05T07:10:08.805Z,17.57
2018-11-05T07:12:35.652Z,11.63
2018-11-05T07:15:02.675Z,12.50
2018-11-05T07:25:47.649Z,12.30
2018-11-05T07:28:14.588Z,12.73
2018-11-05T07:30:41.431Z,12.90
2018-11-05T07:33:08.304Z,12.37
2018-11-05T07:35:35.482Z,11.23
2018-11-05T07:38:02.402Z,11.53
2018-11-05T07:40:29.211Z,11.10
2018-11-05T07:42:56.011Z,12.50
2018-11-05T07:45:23.814Z,11.80
2018-11-05T07:47:50.891Z,10.93
2018-11-05T07:50:19.304Z,11.27
2018-11-05T07:52:46.026Z,12.47
2018-11-05T07:55:14.213Z,10.60
2018-11-05T07:57:42.125Z,11.03
2018-11-05T08:00:26.871Z,9.63
2018-11-05T08:02:55.139Z,11.63
2018-11-05T08:05:22.636Z,11.07
2018-11-05T08:07:49.958Z,13.07
2018-11-05T08:10:16.778Z,11.70
2018-11-05T08:12:43.672Z,12.83
2018-11-05T08:15:18.000Z,10.27
2018-11-05T08:17:46.093Z,10.87
2018-11-05T08:20:13.515Z,11.10
2018-11-05T08:22:41.093Z,8.03
2018-11-05T08:25:07.863Z,11.03
2018-11-05T08:27:34.962Z,11.17
2018-11-05T08:30:02.004Z,11.47
2018-11-05T08:32:29.214Z,11.27
2018-11-05T08:34:56.426Z,9.83
2018-11-05T08:37:23.439Z,11.90
2018-11-05T08:39:50.509Z,9.97
2018-11-05T08:42:17.318Z,10.93
2018-11-05T08:44:44.151Z,11.60
2018-11-05T08:47:10.935Z,11.10
2018-11-05T08:49:37.748Z,9.63
2018-11-05T08:52:04.574Z,11.03
2018-11-05T08:54:31.772Z,13.97
2018-11-05T08:56:58.575Z,11.07
2018-11-05T08:59:25.732Z,11.40
2018-11-05T09:01:52.557Z,10.70
2018-11-05T09:04:19.391Z,9.90
2018-11-05T09:06:46.216Z,10.40
2018-11-05T09:09:13.112Z,11.90
2018-11-05T09:11:40.459Z,11.80
2018-11-05T09:14:10.400Z,11.03
2018-11-05T09:16:37.378Z,10.50
2018-11-05T09:19:04.676Z,11.93
2018-11-05T09:21:31.545Z,11.90
2018-11-05T09:23:58.432Z,9.47
2018-11-05T09:26:25.620Z,11.83
2018-11-05T09:28:52.564Z,10.83
2018-11-05T09:31:19.652Z,12.10
2018-11-05T09:33:46.746Z,12.53
2018-11-05T09:36:13.697Z,12.33
2018-11-05T09:38:40.496Z,14.23
2018-11-05T09:41:07.420Z,12.87
2018-11-05T09:43:34.245Z,16.13
2018-11-05T09:46:01.049Z,14.13
2018-11-05T09:48:27.972Z,13.53
2018-11-05T09:50:54.750Z,13.83
2018-11-05T09:53:22.760Z,10.10
2018-11-05T09:55:49.656Z,16.83
2018-11-05T09:58:16.519Z,11.07
2018-11-05T10:00:43.565Z,12.67
2018-11-05T10:03:17.518Z,13.57
2018-11-05T10:05:44.252Z,15.57
2018-11-05T10:08:11.384Z,13.13
2018-11-05T10:10:38.180Z,11.73
2018-11-05T10:13:05.109Z,12.43
2018-11-05T10:15:32.144Z,11.90
2018-11-05T10:17:59.495Z,13.70
2018-11-05T10:20:26.401Z,12.67
2018-11-05T10:22:53.367Z,14.87
2018-11-05T10:25:20.478Z,15.93
2018-11-05T10:27:48.044Z,14.27
2018-11-05T10:30:16.700Z,14.27
2018-11-05T10:32:43.815Z,13.90
2018-11-05T10:35:11.157Z,14.33
2018-11-05T10:37:38.130Z,12.83
2018-11-05T10:40:05.058Z,13.40
2018-11-05T10:42:31.962Z,15.03
2018-11-05T10:44:58.894Z,18.77
2018-11-05T10:47:25.865Z,13.93
2018-11-05T10:49:52.624Z,15.33
2018-11-05T10:52:19.439Z,15.30
2018-11-05T10:54:46.324Z,12.73
2018-11-05T10:57:13.330Z,13.50
2018-11-05T10:59:40.478Z,14.13
2018-11-05T11:02:25.576Z,13.73
2018-11-05T11:04:52.514Z,12.50
2018-11-05T11:07:19.499Z,12.80
2018-11-05T11:09:46.387Z,15.23
2018-11-05T11:14:40.995Z,11.70
2018-11-05T11:17:07.799Z,14.70
2018-11-05T11:19:35.066Z,13.67
2018-11-05T11:22:02.310Z,13.97
2018-11-05T11:24:29.491Z,14.70
2018-11-05T11:26:56.375Z,16.37
2018-11-05T11:29:23.369Z,15.97
2018-11-05T11:31:50.143Z,12.73
2018-11-05T11:34:17.365Z,16.00
2018-11-05T11:36:44.292Z,16.60
2018-11-05T11:39:12.024Z,14.60
2018-11-05T11:41:38.844Z,14.13
2018-11-05T11:44:06.115Z,14.50
2018-11-05T11:46:33.062Z,13.70
2018-11-05T11:49:00.037Z,14.63
2018-11-05T11:51:26.939Z,15.73
2018-11-05T11:53:54.157Z,12.33
2018-11-05T11:56:21.062Z,14.37
2018-11-05T11:58:53.015Z,19.03
2018-11-05T12:01:20.368Z,14.60
2018-11-05T12:03:47.163Z,15.00
2018-11-05T12:06:14.147Z,15.73
2018-11-05T12:08:41.077Z,16.73
2018-11-05T12:11:07.864Z,16.87
2018-11-05T12:13:35.092Z,15.73
2018-11-05T12:16:02.489Z,16.30
2018-11-05T12:18:29.372Z,18.10
2018-11-05T12:20:56.326Z,17.43
2018-11-05T12:23:23.155Z,19.17
2018-11-05T12:25:49.986Z,16.07
2018-11-05T12:28:17.130Z,15.60
2018-11-05T12:30:44.158Z,20.40
2018-11-05T12:33:10.973Z,15.70
2018-11-05T12:35:37.820Z,15.93
2018-11-05T12:38:05.210Z,18.00
2018-11-05T12:40:32.491Z,17.37
2018-11-05T12:42:59.344Z,16.20
2018-11-05T12:45:26.097Z,14.87
2018-11-05T12:47:52.962Z,14.80
2018-11-05T12:50:23.823Z,17.13
2018-11-05T12:52:51.586Z,14.03
2018-11-05T12:55:18.742Z,17.60
2018-11-05T12:57:45.949Z,17.53
2018-11-05T13:00:13.963Z,18.23
2018-11-05T13:02:40.850Z,17.30
2018-11-05T13:05:07.621Z,20.13
2018-11-05T13:07:34.469Z,16.37
2018-11-05T13:10:01.812Z,16.43
2018-11-05T13:12:28.691Z,18.47
2018-11-05T13:14:55.907Z,16.50
2018-11-05T13:17:22.731Z,16.50
2018-11-05T13:19:49.649Z,18.13
2018-11-05T13:22:16.645Z,17.63
2018-11-05T13:24:43.344Z,19.20
2018-11-05T13:27:10.494Z,17.80
2018-11-05T13:29:37.324Z,15.17
2018-11-05T13:32:04.517Z,16.97
2018-11-05T13:34:33.897Z,18.90
2018-11-05T13:37:01.073Z,15.47
2018-11-05T13:39:27.546Z,16.93
2018-11-05T13:41:54.389Z,16.00
2018-11-05T13:44:21.188Z,18.73
2018-11-05T13:46:48.433Z,18.67
2018-11-05T13:49:15.183Z,21.00
2018-11-05T13:51:42.337Z,18.73
2018-11-05T13:54:09.276Z,18.43
2018-11-05T13:56:35.988Z,18.53
2018-11-05T13:59:02.890Z,20.47
2018-11-05T14:01:29.821Z,17.93
2018-11-05T14:03:57.046Z,16.87
2018-11-05T14:06:23.889Z,17.90
2018-11-05T14:08:50.671Z,16.43
2018-11-05T14:11:17.563Z,19.20
2018-11-05T14:13:44.743Z,16.93
2018-11-05T14:16:11.599Z,20.77
2018-11-05T14:18:38.500Z,20.67
2018-11-05T14:21:05.297Z,17.17
2018-11-05T14:23:32.130Z,17.73
2018-11-05T14:25:59.041Z,19.40
2018-11-05T14:28:26.308Z,19.70
2018-11-05T14:30:53.004Z,18.10
2018-11-05T14:33:19.863Z,16.90
2018-11-05T14:35:46.779Z,22.17
2018-11-05T14:38:13.569Z,18.63
2018-11-05T14:40:40.411Z,17.83
2018-11-05T14:43:07.882Z,16.73
2018-11-05T14:45:34.719Z,18.23
2018-11-05T14:48:01.789Z,18.90
2018-11-05T14:50:28.783Z,19.50
2018-11-05T14:52:56.135Z,16.57
2018-11-05T14:55:23.041Z,20.63
2018-11-05T14:57:51.022Z,17.90
2018-11-05T15:00:24.268Z,18.00
2018-11-05T15:02:51.130Z,18.27
2018-11-05T15:05:18.150Z,18.10
2018-11-05T15:07:46.021Z,16.63
2018-11-05T15:10:13.956Z,17.10
2018-11-05T15:12:40.947Z,18.97
2018-11-05T15:15:08.463Z,20.10
2018-11-05T15:17:35.289Z,21.97
2018-11-05T15:20:03.138Z,14.93
2018-11-05T15:22:29.482Z,17.80
2018-11-05T15:24:57.412Z,17.73
2018-11-05T15:27:24.242Z,18.67
2018-11-05T15:29:51.202Z,17.17
2018-11-05T15:32:17.934Z,16.23
2018-11-05T15:34:44.791Z,20.10
2018-11-05T15:37:12.174Z,20.00
2018-11-05T15:39:39.574Z,21.70
2018-11-05T15:42:06.536Z,29.37
2018-11-05T15:44:33.323Z,16.57
2018-11-05T15:47:00.514Z,15.50
2018-11-05T15:49:27.495Z,19.50
2018-11-05T15:51:54.519Z,15.00
2018-11-05T15:54:21.349Z,15.47
2018-11-05T15:56:48.340Z,15.17
2018-11-05T15:59:15.138Z,17.60
2018-11-05T16:01:42.469Z,14.70
2018-11-05T16:04:09.394Z,19.23
2018-11-05T16:06:36.292Z,17.87
2018-11-05T16:09:03.483Z,18.23
2018-11-05T16:11:30.308Z,20.87
2018-11-05T16:13:57.257Z,16.80
2018-11-05T16:16:24.252Z,16.20
2018-11-05T16:18:51.130Z,17.47
2018-11-05T16:21:18.152Z,19.03
2018-11-05T16:23:45.349Z,20.30
2018-11-05T16:26:12.087Z,16.43
2018-11-05T16:28:38.960Z,14.60
2018-11-05T16:31:06.304Z,15.63
2018-11-05T16:33:33.184Z,14.70
2018-11-05T16:35:59.961Z,13.30
2018-11-05T16:38:26.816Z,12.97
2018-11-05T16:40:53.643Z,13.17
2018-11-05T16:43:20.814Z,14.37
2018-11-05T16:45:47.701Z,15.30
2018-11-05T16:48:14.697Z,13.80
2018-11-05T16:50:41.484Z,14.70
2018-11-05T16:53:08.422Z,13.93
2018-11-05T16:55:35.252Z,12.40
2018-11-05T16:58:02.094Z,15.00
2018-11-05T17:00:29.171Z,14.07
2018-11-05T17:02:55.942Z,13.60
2018-11-05T17:05:22.681Z,14.70
2018-11-05T17:07:49.589Z,14.10
2018-11-05T17:10:16.671Z,13.60
2018-11-05T17:12:44.059Z,14.20
2018-11-05T17:15:15.294Z,13.33
2018-11-05T17:17:42.718Z,12.77
2018-11-05T17:20:09.676Z,13.53
2018-11-05T17:22:36.660Z,14.10
2018-11-05T17:25:03.437Z,13.23
2018-11-05T17:27:30.192Z,13.77
2018-11-05T17:29:56.952Z,14.23
2018-11-05T17:32:23.807Z,15.47
2018-11-05T17:34:50.654Z,12.03
2018-11-05T17:37:17.936Z,14.97
2018-11-05T17:39:44.822Z,15.37
2018-11-05T17:42:11.796Z,14.97
2018-11-05T17:44:38.585Z,13.93
2018-11-05T17:47:05.421Z,15.63
2018-11-05T17:49:32.214Z,15.27
2018-11-05T17:51:59.093Z,13.07
2018-11-05T17:54:25.888Z,14.37
2018-11-05T17:56:52.747Z,15.33
2018-11-05T17:59:19.585Z,12.57
2018-11-05T18:01:46.463Z,13.53
2018-11-05T18:04:13.279Z,14.97
2018-11-05T18:06:40.461Z,12.13
2018-11-05T18:09:07.838Z,12.80
2018-11-05T18:11:34.891Z,15.87
2018-11-05T18:14:01.689Z,11.87
2018-11-05T18:16:28.874Z,14.50
2018-11-05T18:18:55.743Z,13.50
2018-11-05T18:21:22.709Z,12.73
2018-11-05T18:23:49.591Z,12.40
2018-11-05T18:26:16.413Z,17.63
2018-11-05T18:28:43.146Z,13.40
2018-11-05T18:31:10.001Z,13.17
2018-11-05T18:33:36.772Z,13.77
2018-11-05T18:36:03.835Z,14.27
2018-11-05T18:38:30.792Z,14.37
2018-11-05T18:40:57.732Z,10.03
2018-11-05T18:43:24.518Z,13.13
2018-11-05T18:45:51.317Z,13.97
2018-11-05T18:48:18.118Z,13.93
2018-11-05T18:50:44.966Z,15.10
2018-11-05T18:53:11.823Z,13.03
2018-11-05T18:55:39.271Z,11.87
2018-11-05T18:58:06.005Z,13.63
2018-11-05T19:00:32.761Z,14.93
2018-11-05T19:02:59.660Z,12.10
2018-11-05T19:05:28.032Z,11.53
2018-11-05T19:07:54.929Z,15.10
2018-11-05T19:10:21.867Z,12.23
2018-11-05T19:12:49.324Z,14.53
2018-11-05T19:15:16.422Z,14.27
2018-11-05T19:17:44.316Z,13.17
2018-11-05T19:20:11.118Z,14.87
2018-11-05T19:22:39.534Z,13.73
2018-11-05T19:25:06.350Z,14.10
2018-11-05T19:27:33.255Z,13.70
2018-11-05T19:30:00.103Z,13.70
2018-11-05T19:32:27.354Z,13.07
2018-11-05T19:34:54.513Z,17.87
2018-11-05T19:37:21.268Z,13.97
2018-11-05T19:39:48.675Z,12.03
2018-11-05T19:42:15.654Z,14.37
2018-11-05T19:44:42.750Z,12.67
2018-11-05T19:47:09.589Z,12.83
2018-11-05T19:49:36.432Z,16.83
2018-11-05T19:52:03.555Z,14.33
2018-11-05T19:54:30.471Z,14.40
2018-11-05T19:56:57.250Z,14.73
2018-11-05T19:59:23.980Z,12.10
2018-11-05T20:01:51.109Z,12.40
2018-11-05T20:04:17.933Z,13.33
2018-11-05T20:06:44.808Z,13.90
2018-11-05T20:09:11.612Z,13.50
2018-11-05T20:11:38.398Z,12.30
2018-11-05T20:14:05.532Z,14.27
2018-11-05T20:16:32.669Z,16.23
2018-11-05T20:18:59.540Z,15.20
2018-11-05T20:21:26.369Z,12.03
2018-11-05T20:23:53.551Z,11.13
2018-11-05T20:26:21.178Z,11.90
2018-11-05T20:28:48.312Z,11.63
2018-11-05T20:31:15.354Z,13.17
2018-11-05T20:33:43.099Z,12.93
2018-11-05T20:36:09.673Z,13.97
2018-11-05T20:38:36.478Z,14.73
2018-11-05T20:41:04.359Z,10.83
2018-11-05T20:43:31.146Z,12.47
2018-11-05T20:45:58.263Z,13.07
2018-11-05T20:48:25.059Z,13.33
2018-11-05T20:50:51.827Z,14.43
2018-11-05T20:53:18.653Z,14.77
2018-11-05T20:55:45.954Z,10.47
2018-11-05T20:58:12.773Z,10.67
2018-11-05T21:00:39.799Z,11.50
2018-11-05T21:03:06.646Z,11.90
2018-11-05T21:05:34.312Z,11.40
2018-11-05T21:08:01.204Z,12.77
2018-11-05T21:10:28.231Z,10.80
2018-11-05T21:12:55.788Z,14.47
2018-11-05T21:15:23.599Z,11.73
2018-11-05T21:17:50.953Z,12.77
2018-11-05T21:20:18.746Z,14.43
2018-11-05T21:22:46.442Z,10.50
2018-11-05T21:25:13.135Z,10.30
2018-11-05T21:27:40.585Z,9.97
2018-11-05T21:30:07.607Z,13.60
2018-11-05T21:32:34.995Z,12.10
2018-11-05T21:35:01.864Z,12.10
2018-11-05T21:37:28.650Z,11.30
2018-11-05T21:39:55.688Z,11.97
2018-11-05T21:42:23.687Z,12.07
2018-11-05T21:44:50.948Z,10.90
2018-11-05T21:47:18.183Z,10.83
2018-11-05T21:49:44.867Z,11.67
2018-11-05T21:52:11.671Z,11.27
2018-11-05T21:54:38.492Z,14.73
2018-11-05T21:57:05.550Z,13.03
2018-11-05T21:59:32.336Z,11.67
2018-11-05T22:01:59.487Z,10.23
2018-11-05T22:04:26.608Z,11.60
2018-11-05T22:06:53.369Z,13.83
2018-11-05T22:09:20.563Z,9.27
2018-11-05T22:11:48.220Z,10.90
2018-11-05T22:14:15.038Z,12.97
2018-11-05T22:16:41.902Z,10.93
2018-11-05T22:19:09.206Z,11.73
2018-11-05T22:21:36.000Z,13.20
2018-11-05T22:24:03.289Z,11.03
2018-11-05T22:26:30.442Z,10.53
2018-11-05T22:28:57.335Z,13.23
2018-11-05T22:31:24.136Z,9.47
2018-11-05T22:33:51.139Z,12.73
2018-11-05T22:36:18.885Z,11.27
2018-11-05T22:38:45.952Z,10.33
2018-11-05T22:41:12.959Z,11.53
2018-11-05T22:43:39.709Z,9.00
2018-11-05T22:46:06.735Z,11.07
2018-11-05T22:48:33.608Z,14.27
2018-11-05T22:51:00.449Z,10.63
2018-11-05T22:53:27.297Z,13.43
2018-11-05T22:55:54.107Z,13.70
2018-11-05T22:58:20.964Z,13.30
2018-11-05T23:01:06.279Z,11.27
2018-11-05T23:03:33.531Z,10.30
2018-11-05T23:06:00.709Z,11.77
2018-11-05T23:08:27.737Z,13.33
2018-11-05T23:10:54.872Z,12.60
2018-11-05T23:13:22.271Z,9.93
2018-11-05T23:15:49.606Z,9.93
2018-11-05T23:18:16.542Z,14.80
2018-11-05T23:20:43.899Z,17.83
2018-11-05T23:23:11.181Z,12.63
2018-11-05T23:25:38.115Z,11.57
2018-11-05T23:28:05.375Z,13.70
2018-11-05T23:30:32.157Z,14.13
2018-11-05T23:32:59.317Z,11.30
2018-11-05T23:35:26.457Z,11.43
2018-11-05T23:37:53.459Z,12.27
2018-11-05T23:40:20.242Z,10.60
2018-11-05T23:42:47.043Z,11.10
2018-11-05T23:45:15.002Z,13.27
2018-11-05T23:47:42.266Z,13.50
2018-11-05T23:50:09.553Z,14.80
2018-11-05T23:52:36.475Z,11.67
2018-11-05T23:55:03.708Z,10.10
2018-11-05T23:57:30.475Z,12.83
2018-11-05T23:59:57.305Z,12.47
